sensor_id;sensor_type;location;lat;lon;timestamp;P1;durP1;ratioP1;P2;durP2;ratioP2
2404;SDS011;1213;43.206;27.922;2023-08-01T00:02:17;12.47;;;8.57;;
2404;SDS011;1213;43.206;27.922;2023-08-01T00:04:43;13.13;;;9.77;;
2404;SDS011;1213;43.206;27.922;2023-08-01T00:07:08;10.20;;;9.20;;
2404;SDS011;1213;43.206;27.922;2023-08-01T00:09:34;12.77;;;9.07;;
2404;SDS011;1213;43.206;27.922;2023-08-01T00:11:59;9.90;;;8.90;;
2404;SDS011;1213;43.206;27.922;2023-08-01T00:14:24;9.70;;;8.20;;
2404;SDS011;1213;43.206;27.922;2023-08-01T00:16:50;10.43;;;8.87;;
2404;SDS011;1213;43.206;27.922;2023-08-01T00:19:16;12.43;;;7.87;;
2404;SDS011;1213;43.206;27.922;2023-08-01T00:21:42;9.23;;;7.80;;
2404;SDS011;1213;43.206;27.922;2023-08-01T00:24:07;7.97;;;7.00;;
2404;SDS011;1213;43.206;27.922;2023-08-01T00:26:33;7.37;;;6.67;;
2404;SDS011;1213;43.206;27.922;2023-08-01T00:28:59;8.20;;;7.40;;
2404;SDS011;1213;43.206;27.922;2023-08-01T00:31:24;7.27;;;6.60;;
2404;SDS011;1213;43.206;27.922;2023-08-01T00:33:50;7.43;;;6.33;;
2404;SDS011;1213;43.206;27.922;2023-08-01T00:36:15;6.50;;;6.00;;
2404;SDS011;1213;43.206;27.922;2023-08-01T00:38:40;5.87;;;5.33;;
2404;SDS011;1213;43.206;27.922;2023-08-01T00:41:08;6.00;;;5.50;;
2404;SDS011;1213;43.206;27.922;2023-08-01T00:43:34;8.93;;;6.70;;
2404;SDS011;1213;43.206;27.922;2023-08-01T00:46:00;6.13;;;5.63;;
2404;SDS011;1213;43.206;27.922;2023-08-01T00:48:28;7.53;;;5.87;;
2404;SDS011;1213;43.206;27.922;2023-08-01T00:50:54;8.47;;;5.90;;
2404;SDS011;1213;43.206;27.922;2023-08-01T00:53:21;5.70;;;5.20;;
2404;SDS011;1213;43.206;27.922;2023-08-01T00:55:47;7.93;;;5.20;;
2404;SDS011;1213;43.206;27.922;2023-08-01T00:58:13;5.20;;;4.80;;
2404;SDS011;1213;43.206;27.922;2023-08-01T01:00:38;5.83;;;5.27;;
2404;SDS011;1213;43.206;27.922;2023-08-01T01:03:04;7.80;;;7.10;;
2404;SDS011;1213;43.206;27.922;2023-08-01T01:05:35;8.60;;;7.07;;
2404;SDS011;1213;43.206;27.922;2023-08-01T01:08:03;8.80;;;6.83;;
2404;SDS011;1213;43.206;27.922;2023-08-01T01:10:30;10.37;;;7.40;;
2404;SDS011;1213;43.206;27.922;2023-08-01T01:12:56;7.30;;;6.60;;
2404;SDS011;1213;43.206;27.922;2023-08-01T01:15:22;8.30;;;7.50;;
2404;SDS011;1213;43.206;27.922;2023-08-01T01:17:47;8.40;;;6.60;;
2404;SDS011;1213;43.206;27.922;2023-08-01T01:20:12;6.87;;;5.60;;
2404;SDS011;1213;43.206;27.922;2023-08-01T01:22:38;5.83;;;5.30;;
2404;SDS011;1213;43.206;27.922;2023-08-01T01:25:06;6.47;;;5.87;;
2404;SDS011;1213;43.206;27.922;2023-08-01T01:27:33;5.93;;;5.07;;
2404;SDS011;1213;43.206;27.922;2023-08-01T01:30:01;6.33;;;5.20;;
2404;SDS011;1213;43.206;27.922;2023-08-01T01:32:29;6.07;;;5.27;;
2404;SDS011;1213;43.206;27.922;2023-08-01T01:34:55;5.97;;;5.47;;
2404;SDS011;1213;43.206;27.922;2023-08-01T01:37:21;4.97;;;4.40;;
2404;SDS011;1213;43.206;27.922;2023-08-01T01:39:46;5.47;;;5.07;;
2404;SDS011;1213;43.206;27.922;2023-08-01T01:42:12;6.17;;;5.57;;
2404;SDS011;1213;43.206;27.922;2023-08-01T01:44:38;5.40;;;5.00;;
2404;SDS011;1213;43.206;27.922;2023-08-01T01:47:04;7.60;;;4.80;;
2404;SDS011;1213;43.206;27.922;2023-08-01T01:49:29;6.00;;;5.50;;
2404;SDS011;1213;43.206;27.922;2023-08-01T01:51:55;6.70;;;5.20;;
2404;SDS011;1213;43.206;27.922;2023-08-01T01:54:20;9.40;;;4.93;;
2404;SDS011;1213;43.206;27.922;2023-08-01T01:56:46;6.03;;;5.53;;
2404;SDS011;1213;43.206;27.922;2023-08-01T01:59:11;12.63;;;6.30;;
2404;SDS011;1213;43.206;27.922;2023-08-01T02:01:37;10.97;;;6.33;;
2404;SDS011;1213;43.206;27.922;2023-08-01T02:04:02;5.17;;;4.63;;
2404;SDS011;1213;43.206;27.922;2023-08-01T02:06:28;6.17;;;5.57;;
2404;SDS011;1213;43.206;27.922;2023-08-01T02:08:54;7.70;;;5.93;;
2404;SDS011;1213;43.206;27.922;2023-08-01T02:11:19;7.03;;;5.77;;
2404;SDS011;1213;43.206;27.922;2023-08-01T02:13:45;5.80;;;5.30;;
2404;SDS011;1213;43.206;27.922;2023-08-01T02:16:10;5.70;;;5.20;;
2404;SDS011;1213;43.206;27.922;2023-08-01T02:18:36;5.97;;;5.47;;
2404;SDS011;1213;43.206;27.922;2023-08-01T02:21:02;6.77;;;6.10;;
2404;SDS011;1213;43.206;27.922;2023-08-01T02:23:27;5.70;;;5.20;;
2404;SDS011;1213;43.206;27.922;2023-08-01T02:25:54;6.23;;;5.63;;
2404;SDS011;1213;43.206;27.922;2023-08-01T02:28:19;5.57;;;4.83;;
2404;SDS011;1213;43.206;27.922;2023-08-01T02:30:45;5.80;;;5.30;;
2404;SDS011;1213;43.206;27.922;2023-08-01T02:33:10;6.23;;;5.63;;
2404;SDS011;1213;43.206;27.922;2023-08-01T02:35:37;6.03;;;5.50;;
2404;SDS011;1213;43.206;27.922;2023-08-01T02:38:02;7.23;;;5.50;;
2404;SDS011;1213;43.206;27.922;2023-08-01T02:40:28;6.00;;;5.47;;
2404;SDS011;1213;43.206;27.922;2023-08-01T02:42:54;8.53;;;5.40;;
2404;SDS011;1213;43.206;27.922;2023-08-01T02:45:19;6.33;;;5.73;;
2404;SDS011;1213;43.206;27.922;2023-08-01T02:47:45;6.63;;;5.70;;
2404;SDS011;1213;43.206;27.922;2023-08-01T02:50:10;7.87;;;5.30;;
2404;SDS011;1213;43.206;27.922;2023-08-01T02:52:36;5.60;;;5.10;;
2404;SDS011;1213;43.206;27.922;2023-08-01T02:55:01;7.10;;;5.07;;
2404;SDS011;1213;43.206;27.922;2023-08-01T02:57:27;5.30;;;4.83;;
2404;SDS011;1213;43.206;27.922;2023-08-01T02:59:52;5.80;;;5.30;;
2404;SDS011;1213;43.206;27.922;2023-08-01T03:02:18;5.40;;;5.00;;
2404;SDS011;1213;43.206;27.922;2023-08-01T03:04:44;6.23;;;4.50;;
2404;SDS011;1213;43.206;27.922;2023-08-01T03:07:09;6.43;;;4.77;;
2404;SDS011;1213;43.206;27.922;2023-08-01T03:09:35;5.93;;;4.70;;
2404;SDS011;1213;43.206;27.922;2023-08-01T03:12:00;5.50;;;5.00;;
2404;SDS011;1213;43.206;27.922;2023-08-01T03:14:26;5.70;;;4.80;;
2404;SDS011;1213;43.206;27.922;2023-08-01T03:16:51;5.17;;;4.77;;
2404;SDS011;1213;43.206;27.922;2023-08-01T03:19:16;6.57;;;5.80;;
2404;SDS011;1213;43.206;27.922;2023-08-01T03:21:42;7.43;;;6.10;;
2404;SDS011;1213;43.206;27.922;2023-08-01T03:24:07;7.37;;;6.30;;
2404;SDS011;1213;43.206;27.922;2023-08-01T03:26:36;9.23;;;6.40;;
2404;SDS011;1213;43.206;27.922;2023-08-01T03:29:02;10.73;;;9.17;;
2404;SDS011;1213;43.206;27.922;2023-08-01T03:31:28;11.83;;;8.57;;
2404;SDS011;1213;43.206;27.922;2023-08-01T03:33:53;11.80;;;9.93;;
2404;SDS011;1213;43.206;27.922;2023-08-01T03:36:19;14.30;;;12.70;;
2404;SDS011;1213;43.206;27.922;2023-08-01T03:38:45;18.17;;;13.00;;
2404;SDS011;1213;43.206;27.922;2023-08-01T03:41:10;15.47;;;12.70;;
2404;SDS011;1213;43.206;27.922;2023-08-01T03:43:36;18.50;;;13.40;;
2404;SDS011;1213;43.206;27.922;2023-08-01T03:46:02;18.57;;;15.40;;
2404;SDS011;1213;43.206;27.922;2023-08-01T03:48:30;22.87;;;15.97;;
2404;SDS011;1213;43.206;27.922;2023-08-01T03:50:55;28.97;;;17.87;;
2404;SDS011;1213;43.206;27.922;2023-08-01T03:53:21;28.33;;;18.67;;
2404;SDS011;1213;43.206;27.922;2023-08-01T03:55:46;21.67;;;17.10;;
2404;SDS011;1213;43.206;27.922;2023-08-01T03:58:13;28.60;;;16.77;;
2404;SDS011;1213;43.206;27.922;2023-08-01T04:00:38;33.30;;;19.33;;
2404;SDS011;1213;43.206;27.922;2023-08-01T04:03:04;22.60;;;17.10;;
2404;SDS011;1213;43.206;27.922;2023-08-01T04:05:29;24.67;;;16.23;;
2404;SDS011;1213;43.206;27.922;2023-08-01T04:07:54;19.70;;;14.47;;
2404;SDS011;1213;43.206;27.922;2023-08-01T04:10:20;14.10;;;12.00;;
2404;SDS011;1213;43.206;27.922;2023-08-01T04:12:47;26.50;;;14.10;;
2404;SDS011;1213;43.206;27.922;2023-08-01T04:15:12;18.60;;;11.90;;
2404;SDS011;1213;43.206;27.922;2023-08-01T04:17:38;17.50;;;12.10;;
2404;SDS011;1213;43.206;27.922;2023-08-01T04:20:03;14.27;;;10.67;;
2404;SDS011;1213;43.206;27.922;2023-08-01T04:22:29;11.20;;;9.13;;
2404;SDS011;1213;43.206;27.922;2023-08-01T04:24:55;8.20;;;7.40;;
2404;SDS011;1213;43.206;27.922;2023-08-01T04:27:20;11.57;;;8.67;;
2404;SDS011;1213;43.206;27.922;2023-08-01T04:29:46;8.63;;;7.67;;
2404;SDS011;1213;43.206;27.922;2023-08-01T04:32:12;13.23;;;6.77;;
2404;SDS011;1213;43.206;27.922;2023-08-01T04:34:39;7.00;;;6.30;;
2404;SDS011;1213;43.206;27.922;2023-08-01T04:37:04;6.50;;;5.57;;
2404;SDS011;1213;43.206;27.922;2023-08-01T04:39:30;7.17;;;5.50;;
2404;SDS011;1213;43.206;27.922;2023-08-01T04:41:55;5.70;;;5.30;;
2404;SDS011;1213;43.206;27.922;2023-08-01T04:44:21;6.87;;;6.20;;
2404;SDS011;1213;43.206;27.922;2023-08-01T04:46:47;9.47;;;5.77;;
2404;SDS011;1213;43.206;27.922;2023-08-01T04:49:13;11.50;;;10.53;;
2404;SDS011;1213;43.206;27.922;2023-08-01T04:51:38;8.07;;;5.43;;
2404;SDS011;1213;43.206;27.922;2023-08-01T04:54:04;9.27;;;7.53;;
2404;SDS011;1213;43.206;27.922;2023-08-01T04:56:29;7.87;;;7.07;;
2404;SDS011;1213;43.206;27.922;2023-08-01T04:58:55;7.87;;;6.50;;
2404;SDS011;1213;43.206;27.922;2023-08-01T05:01:20;7.13;;;6.30;;
2404;SDS011;1213;43.206;27.922;2023-08-01T05:03:46;8.80;;;6.00;;
2404;SDS011;1213;43.206;27.922;2023-08-01T05:06:11;7.17;;;6.47;;
2404;SDS011;1213;43.206;27.922;2023-08-01T05:08:37;7.13;;;6.07;;
2404;SDS011;1213;43.206;27.922;2023-08-01T05:11:03;8.17;;;6.17;;
2404;SDS011;1213;43.206;27.922;2023-08-01T05:13:29;7.43;;;5.93;;
2404;SDS011;1213;43.206;27.922;2023-08-01T05:15:54;6.90;;;6.00;;
2404;SDS011;1213;43.206;27.922;2023-08-01T05:18:19;7.47;;;5.53;;
2404;SDS011;1213;43.206;27.922;2023-08-01T05:20:45;6.53;;;4.77;;
2404;SDS011;1213;43.206;27.922;2023-08-01T05:23:10;5.47;;;4.97;;
2404;SDS011;1213;43.206;27.922;2023-08-01T05:25:36;6.53;;;5.83;;
2404;SDS011;1213;43.206;27.922;2023-08-01T05:28:01;19.97;;;13.23;;
2404;SDS011;1213;43.206;27.922;2023-08-01T05:30:27;29.63;;;19.47;;
2404;SDS011;1213;43.206;27.922;2023-08-01T05:32:52;33.20;;;20.17;;
2404;SDS011;1213;43.206;27.922;2023-08-01T05:35:19;27.07;;;18.90;;
2404;SDS011;1213;43.206;27.922;2023-08-01T05:37:46;23.10;;;17.40;;
2404;SDS011;1213;43.206;27.922;2023-08-01T05:40:11;26.50;;;19.33;;
2404;SDS011;1213;43.206;27.922;2023-08-01T05:42:37;26.30;;;17.90;;
2404;SDS011;1213;43.206;27.922;2023-08-01T05:45:02;31.30;;;21.27;;
2404;SDS011;1213;43.206;27.922;2023-08-01T05:47:29;29.33;;;20.13;;
2404;SDS011;1213;43.206;27.922;2023-08-01T05:49:54;27.60;;;17.00;;
2404;SDS011;1213;43.206;27.922;2023-08-01T05:52:20;27.53;;;18.80;;
2404;SDS011;1213;43.206;27.922;2023-08-01T05:54:45;23.30;;;17.37;;
2404;SDS011;1213;43.206;27.922;2023-08-01T05:57:10;25.63;;;19.80;;
2404;SDS011;1213;43.206;27.922;2023-08-01T05:59:36;24.63;;;15.30;;
2404;SDS011;1213;43.206;27.922;2023-08-01T06:02:02;23.23;;;16.03;;
2404;SDS011;1213;43.206;27.922;2023-08-01T06:04:28;22.30;;;14.90;;
2404;SDS011;1213;43.206;27.922;2023-08-01T06:06:53;15.40;;;12.47;;
2404;SDS011;1213;43.206;27.922;2023-08-01T06:09:19;15.10;;;11.80;;
2404;SDS011;1213;43.206;27.922;2023-08-01T06:11:44;10.90;;;9.43;;
2404;SDS011;1213;43.206;27.922;2023-08-01T06:14:10;11.07;;;9.97;;
2404;SDS011;1213;43.206;27.922;2023-08-01T06:16:36;9.57;;;7.70;;
2404;SDS011;1213;43.206;27.922;2023-08-01T06:19:01;9.77;;;7.73;;
2404;SDS011;1213;43.206;27.922;2023-08-01T06:21:27;9.93;;;7.37;;
2404;SDS011;1213;43.206;27.922;2023-08-01T06:23:53;12.30;;;6.90;;
2404;SDS011;1213;43.206;27.922;2023-08-01T06:26:18;11.77;;;7.57;;
2404;SDS011;1213;43.206;27.922;2023-08-01T06:28:44;6.47;;;5.87;;
2404;SDS011;1213;43.206;27.922;2023-08-01T06:31:09;7.30;;;6.60;;
2404;SDS011;1213;43.206;27.922;2023-08-01T06:33:35;6.13;;;5.60;;
2404;SDS011;1213;43.206;27.922;2023-08-01T06:36:00;11.47;;;6.87;;
2404;SDS011;1213;43.206;27.922;2023-08-01T06:38:26;7.70;;;6.00;;
2404;SDS011;1213;43.206;27.922;2023-08-01T06:40:51;5.60;;;5.10;;
2404;SDS011;1213;43.206;27.922;2023-08-01T06:43:16;7.57;;;5.97;;
2404;SDS011;1213;43.206;27.922;2023-08-01T06:45:42;5.93;;;5.33;;
2404;SDS011;1213;43.206;27.922;2023-08-01T06:48:07;6.57;;;5.97;;
2404;SDS011;1213;43.206;27.922;2023-08-01T06:50:33;7.50;;;5.70;;
2404;SDS011;1213;43.206;27.922;2023-08-01T06:52:59;9.40;;;5.80;;
2404;SDS011;1213;43.206;27.922;2023-08-01T06:55:26;6.03;;;5.43;;
2404;SDS011;1213;43.206;27.922;2023-08-01T06:57:51;6.30;;;5.70;;
2404;SDS011;1213;43.206;27.922;2023-08-01T07:00:17;5.83;;;5.23;;
2404;SDS011;1213;43.206;27.922;2023-08-01T07:02:42;7.20;;;4.93;;
2404;SDS011;1213;43.206;27.922;2023-08-01T07:05:08;6.50;;;5.90;;
2404;SDS011;1213;43.206;27.922;2023-08-01T07:07:33;6.13;;;5.43;;
2404;SDS011;1213;43.206;27.922;2023-08-01T07:09:59;5.60;;;5.00;;
2404;SDS011;1213;43.206;27.922;2023-08-01T07:12:24;12.63;;;5.47;;
2404;SDS011;1213;43.206;27.922;2023-08-01T07:14:49;4.40;;;4.10;;
2404;SDS011;1213;43.206;27.922;2023-08-01T07:17:15;4.30;;;4.00;;
2404;SDS011;1213;43.206;27.922;2023-08-01T07:19:40;17.33;;;5.17;;
2404;SDS011;1213;43.206;27.922;2023-08-01T07:22:06;6.90;;;4.60;;
2404;SDS011;1213;43.206;27.922;2023-08-01T07:24:31;5.10;;;4.60;;
2404;SDS011;1213;43.206;27.922;2023-08-01T07:26:57;5.67;;;5.07;;
2404;SDS011;1213;43.206;27.922;2023-08-01T07:29:22;5.80;;;4.93;;
2404;SDS011;1213;43.206;27.922;2023-08-01T07:31:47;4.07;;;3.77;;
2404;SDS011;1213;43.206;27.922;2023-08-01T07:34:13;5.33;;;4.80;;
2404;SDS011;1213;43.206;27.922;2023-08-01T07:36:38;5.77;;;4.27;;
2404;SDS011;1213;43.206;27.922;2023-08-01T07:39:04;3.40;;;3.20;;
2404;SDS011;1213;43.206;27.922;2023-08-01T07:41:29;6.83;;;6.07;;
2404;SDS011;1213;43.206;27.922;2023-08-01T07:43:55;4.00;;;3.60;;
2404;SDS011;1213;43.206;27.922;2023-08-01T07:46:20;5.43;;;3.30;;
2404;SDS011;1213;43.206;27.922;2023-08-01T07:48:45;4.70;;;4.30;;
2404;SDS011;1213;43.206;27.922;2023-08-01T07:51:11;9.40;;;5.30;;
2404;SDS011;1213;43.206;27.922;2023-08-01T07:53:37;7.47;;;5.43;;
2404;SDS011;1213;43.206;27.922;2023-08-01T07:56:02;6.03;;;5.53;;
2404;SDS011;1213;43.206;27.922;2023-08-01T07:58:28;6.13;;;5.53;;
2404;SDS011;1213;43.206;27.922;2023-08-01T08:00:54;5.77;;;5.27;;
2404;SDS011;1213;43.206;27.922;2023-08-01T08:03:20;6.87;;;5.97;;
2404;SDS011;1213;43.206;27.922;2023-08-01T08:05:47;6.23;;;5.63;;
2404;SDS011;1213;43.206;27.922;2023-08-01T08:08:13;5.50;;;5.00;;
2404;SDS011;1213;43.206;27.922;2023-08-01T08:10:39;6.53;;;5.50;;
2404;SDS011;1213;43.206;27.922;2023-08-01T08:13:04;9.60;;;6.00;;
2404;SDS011;1213;43.206;27.922;2023-08-01T08:15:30;8.37;;;6.47;;
2404;SDS011;1213;43.206;27.922;2023-08-01T08:18:00;6.27;;;5.67;;
2404;SDS011;1213;43.206;27.922;2023-08-01T08:20:29;7.40;;;6.00;;
2404;SDS011;1213;43.206;27.922;2023-08-01T08:22:56;12.33;;;5.73;;
2404;SDS011;1213;43.206;27.922;2023-08-01T08:25:21;7.50;;;6.80;;
2404;SDS011;1213;43.206;27.922;2023-08-01T08:27:48;5.83;;;4.87;;
2404;SDS011;1213;43.206;27.922;2023-08-01T08:30:14;4.53;;;4.13;;
2404;SDS011;1213;43.206;27.922;2023-08-01T08:32:39;5.13;;;4.63;;
2404;SDS011;1213;43.206;27.922;2023-08-01T08:35:05;4.57;;;4.20;;
2404;SDS011;1213;43.206;27.922;2023-08-01T08:37:31;5.73;;;4.23;;
2404;SDS011;1213;43.206;27.922;2023-08-01T08:39:56;4.00;;;3.70;;
2404;SDS011;1213;43.206;27.922;2023-08-01T08:42:22;4.40;;;4.00;;
2404;SDS011;1213;43.206;27.922;2023-08-01T08:44:49;4.40;;;4.00;;
2404;SDS011;1213;43.206;27.922;2023-08-01T08:47:19;4.20;;;3.90;;
2404;SDS011;1213;43.206;27.922;2023-08-01T08:49:49;3.83;;;3.63;;
2404;SDS011;1213;43.206;27.922;2023-08-01T08:52:15;5.00;;;4.60;;
2404;SDS011;1213;43.206;27.922;2023-08-01T08:54:41;5.00;;;4.50;;
2404;SDS011;1213;43.206;27.922;2023-08-01T08:57:07;4.40;;;4.10;;
2404;SDS011;1213;43.206;27.922;2023-08-01T08:59:33;6.30;;;5.70;;
2404;SDS011;1213;43.206;27.922;2023-08-01T09:02:01;4.40;;;4.10;;
2404;SDS011;1213;43.206;27.922;2023-08-01T09:04:28;4.90;;;4.40;;
2404;SDS011;1213;43.206;27.922;2023-08-01T09:06:55;5.20;;;4.30;;
2404;SDS011;1213;43.206;27.922;2023-08-01T09:09:26;5.03;;;4.53;;
2404;SDS011;1213;43.206;27.922;2023-08-01T09:11:53;5.00;;;4.60;;
2404;SDS011;1213;43.206;27.922;2023-08-01T09:14:21;5.43;;;4.93;;
2404;SDS011;1213;43.206;27.922;2023-08-01T09:16:47;7.77;;;6.50;;
2404;SDS011;1213;43.206;27.922;2023-08-01T09:19:19;6.23;;;5.50;;
2404;SDS011;1213;43.206;27.922;2023-08-01T09:21:47;8.67;;;6.37;;
2404;SDS011;1213;43.206;27.922;2023-08-01T09:24:13;6.40;;;5.80;;
2404;SDS011;1213;43.206;27.922;2023-08-01T09:26:41;7.43;;;6.73;;
2404;SDS011;1213;43.206;27.922;2023-08-01T09:29:07;6.80;;;6.20;;
2404;SDS011;1213;43.206;27.922;2023-08-01T09:31:34;5.20;;;4.80;;
2404;SDS011;1213;43.206;27.922;2023-08-01T09:34:01;4.83;;;4.33;;
2404;SDS011;1213;43.206;27.922;2023-08-01T09:36:30;5.27;;;4.87;;
2404;SDS011;1213;43.206;27.922;2023-08-01T09:39:00;5.67;;;4.77;;
2404;SDS011;1213;43.206;27.922;2023-08-01T09:41:26;3.90;;;3.60;;
2404;SDS011;1213;43.206;27.922;2023-08-01T09:43:53;7.20;;;4.17;;
2404;SDS011;1213;43.206;27.922;2023-08-01T09:46:19;4.60;;;4.20;;
2404;SDS011;1213;43.206;27.922;2023-08-01T09:48:44;4.67;;;4.27;;
2404;SDS011;1213;43.206;27.922;2023-08-01T09:51:10;4.60;;;4.20;;
2404;SDS011;1213;43.206;27.922;2023-08-01T09:56:18;3.97;;;3.67;;
2404;SDS011;1213;43.206;27.922;2023-08-01T09:58:46;4.93;;;4.53;;
2404;SDS011;1213;43.206;27.922;2023-08-01T10:01:12;4.50;;;4.10;;
2404;SDS011;1213;43.206;27.922;2023-08-01T10:03:40;4.40;;;4.10;;
2404;SDS011;1213;43.206;27.922;2023-08-01T10:06:10;5.20;;;4.70;;
2404;SDS011;1213;43.206;27.922;2023-08-01T10:08:39;4.10;;;3.70;;
2404;SDS011;1213;43.206;27.922;2023-08-01T10:11:05;5.13;;;4.20;;
2404;SDS011;1213;43.206;27.922;2023-08-01T10:13:31;4.83;;;4.30;;
2404;SDS011;1213;43.206;27.922;2023-08-01T10:15:57;4.17;;;3.77;;
2404;SDS011;1213;43.206;27.922;2023-08-01T10:18:24;4.43;;;4.03;;
2404;SDS011;1213;43.206;27.922;2023-08-01T10:20:50;3.90;;;3.60;;
2404;SDS011;1213;43.206;27.922;2023-08-01T10:23:17;6.00;;;4.80;;
2404;SDS011;1213;43.206;27.922;2023-08-01T10:25:43;13.73;;;7.37;;
2404;SDS011;1213;43.206;27.922;2023-08-01T10:28:10;19.47;;;5.67;;
2404;SDS011;1213;43.206;27.922;2023-08-01T10:30:35;17.90;;;5.93;;
2404;SDS011;1213;43.206;27.922;2023-08-01T10:33:01;4.83;;;4.50;;
2404;SDS011;1213;43.206;27.922;2023-08-01T10:35:33;6.10;;;4.77;;
2404;SDS011;1213;43.206;27.922;2023-08-01T10:38:03;6.70;;;4.07;;
2404;SDS011;1213;43.206;27.922;2023-08-01T10:40:39;4.27;;;3.87;;
2404;SDS011;1213;43.206;27.922;2023-08-01T10:43:18;4.63;;;4.23;;
2404;SDS011;1213;43.206;27.922;2023-08-01T10:45:47;4.33;;;4.03;;
2404;SDS011;1213;43.206;27.922;2023-08-01T10:48:13;9.03;;;8.20;;
2404;SDS011;1213;43.206;27.922;2023-08-01T10:50:39;6.27;;;4.60;;
2404;SDS011;1213;43.206;27.922;2023-08-01T10:53:05;8.77;;;4.37;;
2404;SDS011;1213;43.206;27.922;2023-08-01T10:55:42;4.50;;;4.10;;
2404;SDS011;1213;43.206;27.922;2023-08-01T10:58:09;4.70;;;3.80;;
2404;SDS011;1213;43.206;27.922;2023-08-01T11:00:35;5.53;;;4.40;;
2404;SDS011;1213;43.206;27.922;2023-08-01T11:03:00;4.10;;;3.80;;
2404;SDS011;1213;43.206;27.922;2023-08-01T11:05:26;4.43;;;4.13;;
2404;SDS011;1213;43.206;27.922;2023-08-01T11:07:56;6.93;;;5.00;;
2404;SDS011;1213;43.206;27.922;2023-08-01T11:10:24;3.90;;;3.60;;
2404;SDS011;1213;43.206;27.922;2023-08-01T11:12:51;4.30;;;4.00;;
2404;SDS011;1213;43.206;27.922;2023-08-01T11:15:18;4.13;;;3.83;;
2404;SDS011;1213;43.206;27.922;2023-08-01T11:17:47;3.87;;;3.50;;
2404;SDS011;1213;43.206;27.922;2023-08-01T11:20:18;6.70;;;3.80;;
2404;SDS011;1213;43.206;27.922;2023-08-01T11:22:50;4.27;;;3.97;;
2404;SDS011;1213;43.206;27.922;2023-08-01T11:25:33;4.67;;;4.20;;
2404;SDS011;1213;43.206;27.922;2023-08-01T11:28:09;4.73;;;4.27;;
2404;SDS011;1213;43.206;27.922;2023-08-01T11:30:35;7.13;;;4.73;;
2404;SDS011;1213;43.206;27.922;2023-08-01T11:33:01;12.73;;;11.00;;
2404;SDS011;1213;43.206;27.922;2023-08-01T11:35:37;5.57;;;4.53;;
2404;SDS011;1213;43.206;27.922;2023-08-01T11:38:03;3.80;;;3.57;;
2404;SDS011;1213;43.206;27.922;2023-08-01T11:40:31;10.83;;;4.93;;
2404;SDS011;1213;43.206;27.922;2023-08-01T11:43:00;10.23;;;5.00;;
2404;SDS011;1213;43.206;27.922;2023-08-01T11:45:26;5.27;;;4.27;;
2404;SDS011;1213;43.206;27.922;2023-08-01T11:47:51;4.37;;;4.07;;
2404;SDS011;1213;43.206;27.922;2023-08-01T11:50:24;6.13;;;4.47;;
2404;SDS011;1213;43.206;27.922;2023-08-01T11:52:51;5.30;;;4.17;;
2404;SDS011;1213;43.206;27.922;2023-08-01T11:55:25;4.60;;;4.30;;
2404;SDS011;1213;43.206;27.922;2023-08-01T11:57:52;5.13;;;4.43;;
2404;SDS011;1213;43.206;27.922;2023-08-01T12:00:23;5.40;;;3.50;;
2404;SDS011;1213;43.206;27.922;2023-08-01T12:02:51;4.47;;;4.17;;
2404;SDS011;1213;43.206;27.922;2023-08-01T12:05:23;5.57;;;5.07;;
2404;SDS011;1213;43.206;27.922;2023-08-01T12:07:49;6.43;;;4.67;;
2404;SDS011;1213;43.206;27.922;2023-08-01T12:10:17;4.20;;;3.90;;
2404;SDS011;1213;43.206;27.922;2023-08-01T12:12:46;5.00;;;4.60;;
2404;SDS011;1213;43.206;27.922;2023-08-01T12:15:13;5.10;;;4.70;;
2404;SDS011;1213;43.206;27.922;2023-08-01T12:17:40;4.70;;;4.30;;
2404;SDS011;1213;43.206;27.922;2023-08-01T12:20:06;8.60;;;4.50;;
2404;SDS011;1213;43.206;27.922;2023-08-01T12:22:32;4.00;;;3.60;;
2404;SDS011;1213;43.206;27.922;2023-08-01T12:24:57;11.33;;;4.30;;
2404;SDS011;1213;43.206;27.922;2023-08-01T12:27:23;4.07;;;3.77;;
2404;SDS011;1213;43.206;27.922;2023-08-01T12:29:49;5.90;;;5.40;;
2404;SDS011;1213;43.206;27.922;2023-08-01T12:32:14;4.83;;;4.33;;
2404;SDS011;1213;43.206;27.922;2023-08-01T12:34:39;16.03;;;5.60;;
2404;SDS011;1213;43.206;27.922;2023-08-01T12:37:05;5.53;;;4.00;;
2404;SDS011;1213;43.206;27.922;2023-08-01T12:39:30;4.10;;;3.70;;
2404;SDS011;1213;43.206;27.922;2023-08-01T12:41:56;4.07;;;3.77;;
2404;SDS011;1213;43.206;27.922;2023-08-01T12:44:21;5.20;;;3.70;;
2404;SDS011;1213;43.206;27.922;2023-08-01T12:46:47;4.03;;;3.70;;
2404;SDS011;1213;43.206;27.922;2023-08-01T12:49:12;4.03;;;3.67;;
2404;SDS011;1213;43.206;27.922;2023-08-01T12:51:38;3.40;;;3.20;;
2404;SDS011;1213;43.206;27.922;2023-08-01T12:54:04;3.73;;;3.20;;
2404;SDS011;1213;43.206;27.922;2023-08-01T12:56:29;4.30;;;3.90;;
2404;SDS011;1213;43.206;27.922;2023-08-01T12:58:55;9.27;;;8.37;;
2404;SDS011;1213;43.206;27.922;2023-08-01T13:01:20;4.30;;;3.50;;
2404;SDS011;1213;43.206;27.922;2023-08-01T13:03:46;3.90;;;3.50;;
2404;SDS011;1213;43.206;27.922;2023-08-01T13:06:11;3.07;;;2.87;;
2404;SDS011;1213;43.206;27.922;2023-08-01T13:08:40;3.97;;;3.67;;
2404;SDS011;1213;43.206;27.922;2023-08-01T13:11:12;3.20;;;3.00;;
2404;SDS011;1213;43.206;27.922;2023-08-01T13:13:40;3.27;;;2.97;;
2404;SDS011;1213;43.206;27.922;2023-08-01T13:16:05;5.63;;;3.17;;
2404;SDS011;1213;43.206;27.922;2023-08-01T13:18:31;3.80;;;3.17;;
2404;SDS011;1213;43.206;27.922;2023-08-01T13:20:57;5.80;;;3.33;;
2404;SDS011;1213;43.206;27.922;2023-08-01T13:23:24;3.87;;;3.57;;
2404;SDS011;1213;43.206;27.922;2023-08-01T13:25:50;4.80;;;3.20;;
2404;SDS011;1213;43.206;27.922;2023-08-01T13:28:16;3.60;;;3.30;;
2404;SDS011;1213;43.206;27.922;2023-08-01T13:30:41;4.80;;;3.97;;
2404;SDS011;1213;43.206;27.922;2023-08-01T13:33:06;3.27;;;2.97;;
2404;SDS011;1213;43.206;27.922;2023-08-01T13:35:32;3.07;;;2.87;;
2404;SDS011;1213;43.206;27.922;2023-08-01T13:37:57;3.13;;;2.93;;
2404;SDS011;1213;43.206;27.922;2023-08-01T13:40:24;4.40;;;3.10;;
2404;SDS011;1213;43.206;27.922;2023-08-01T13:42:50;3.30;;;2.93;;
2404;SDS011;1213;43.206;27.922;2023-08-01T13:45:15;7.37;;;3.93;;
2404;SDS011;1213;43.206;27.922;2023-08-01T13:47:41;5.80;;;4.40;;
2404;SDS011;1213;43.206;27.922;2023-08-01T13:50:06;3.50;;;3.20;;
2404;SDS011;1213;43.206;27.922;2023-08-01T13:52:33;3.50;;;3.10;;
2404;SDS011;1213;43.206;27.922;2023-08-01T13:54:59;3.70;;;3.40;;
2404;SDS011;1213;43.206;27.922;2023-08-01T13:57:27;3.43;;;3.13;;
2404;SDS011;1213;43.206;27.922;2023-08-01T13:59:53;4.70;;;4.30;;
2404;SDS011;1213;43.206;27.922;2023-08-01T14:02:18;4.47;;;4.07;;
2404;SDS011;1213;43.206;27.922;2023-08-01T14:04:44;3.97;;;3.60;;
2404;SDS011;1213;43.206;27.922;2023-08-01T14:07:09;3.73;;;3.43;;
2404;SDS011;1213;43.206;27.922;2023-08-01T14:09:35;3.60;;;3.30;;
2404;SDS011;1213;43.206;27.922;2023-08-01T14:12:02;4.20;;;3.77;;
2404;SDS011;1213;43.206;27.922;2023-08-01T14:14:28;6.27;;;3.50;;
2404;SDS011;1213;43.206;27.922;2023-08-01T14:16:54;4.17;;;3.77;;
2404;SDS011;1213;43.206;27.922;2023-08-01T14:19:20;5.17;;;4.27;;
2404;SDS011;1213;43.206;27.922;2023-08-01T14:21:45;4.90;;;3.80;;
2404;SDS011;1213;43.206;27.922;2023-08-01T14:24:10;3.80;;;3.10;;
2404;SDS011;1213;43.206;27.922;2023-08-01T14:26:36;4.10;;;3.80;;
2404;SDS011;1213;43.206;27.922;2023-08-01T14:29:01;4.10;;;3.80;;
2404;SDS011;1213;43.206;27.922;2023-08-01T14:31:27;3.90;;;3.57;;
2404;SDS011;1213;43.206;27.922;2023-08-01T14:33:53;4.00;;;3.70;;
2404;SDS011;1213;43.206;27.922;2023-08-01T14:36:18;4.17;;;3.80;;
2404;SDS011;1213;43.206;27.922;2023-08-01T14:38:44;4.00;;;3.70;;
2404;SDS011;1213;43.206;27.922;2023-08-01T14:41:09;3.90;;;3.70;;
2404;SDS011;1213;43.206;27.922;2023-08-01T14:43:35;4.47;;;4.07;;
2404;SDS011;1213;43.206;27.922;2023-08-01T14:46:01;3.30;;;3.10;;
2404;SDS011;1213;43.206;27.922;2023-08-01T14:48:26;4.10;;;3.80;;
2404;SDS011;1213;43.206;27.922;2023-08-01T14:50:52;3.80;;;3.50;;
2404;SDS011;1213;43.206;27.922;2023-08-01T14:53:17;3.77;;;3.47;;
2404;SDS011;1213;43.206;27.922;2023-08-01T14:55:43;3.20;;;3.00;;